Terminal Aerodrome Forecast
Issued by NWS Memphis, TN

Home | Current Version | Previous Version | Text Only | Print | Product List | Glossary On
Versions: 1 2 3 4 5 6 7 8 9 10 11 12
128
FTUS44 KMEG 221726
TAFMKL
TAF
KMKL 221726Z 2218/2318 21014G22KT P6SM SCT100
     FM230200 24012G18KT P6SM BKN050
     FM231000 26012KT P6SM BKN035
     FM231600 29010KT P6SM BKN025=

USA.gov is the U.S. government's official web portal to all federal, state and local government web resources and services.